createdAt,value
2022-11-08T00:08:00.586Z,8.90
2022-11-08T00:23:03.925Z,9.30
2022-11-08T00:38:05.810Z,6.82
2022-11-08T00:53:07.674Z,7.13
2022-11-08T01:08:10.457Z,8.43
2022-11-08T01:23:12.924Z,7.32
2022-11-08T01:38:15.300Z,6.78
2022-11-08T01:53:18.190Z,6.93
2022-11-08T02:08:26.953Z,6.78
2022-11-08T02:23:56.281Z,6.50
2022-11-08T02:38:58.386Z,10.75
2022-11-08T02:54:00.346Z,11.00
2022-11-08T03:09:02.315Z,9.75
2022-11-08T03:24:05.496Z,7.72
2022-11-08T03:39:07.407Z,11.15
2022-11-08T03:54:10.651Z,9.02
2022-11-08T04:09:12.609Z,7.07
2022-11-08T04:24:14.716Z,6.50
2022-11-08T04:39:16.711Z,7.93
2022-11-08T04:54:18.568Z,8.60
2022-11-08T05:09:20.525Z,10.32
2022-11-08T05:24:22.375Z,12.32
2022-11-08T05:39:27.227Z,10.10
2022-11-08T05:54:32.819Z,12.10
2022-11-08T06:09:34.660Z,10.63
2022-11-08T06:24:36.863Z,8.60
2022-11-08T06:39:38.699Z,9.52
2022-11-08T06:54:40.524Z,11.55
2022-11-08T07:09:43.847Z,14.65
2022-11-08T07:24:46.036Z,14.07
2022-11-08T07:39:47.898Z,10.35
2022-11-08T07:54:49.730Z,8.98
2022-11-08T08:09:51.616Z,6.13
2022-11-08T08:24:53.524Z,5.03
2022-11-08T08:39:55.447Z,4.45
2022-11-08T08:54:57.430Z,3.97
2022-11-08T09:09:59.308Z,3.53
2022-11-08T09:25:01.674Z,3.58
2022-11-08T09:40:03.913Z,3.60
2022-11-08T09:55:26.556Z,3.20
2022-11-08T10:11:05.982Z,2.38
2022-11-08T10:26:25.716Z,3.13
2022-11-08T10:41:48.894Z,3.13
2022-11-08T10:56:55.983Z,3.42
2022-11-08T11:12:01.293Z,2.70
2022-11-08T11:27:07.133Z,2.90
2022-11-08T11:42:39.324Z,2.67
2022-11-08T11:57:55.904Z,2.40
2022-11-08T12:13:00.519Z,1.90
2022-11-08T12:28:14.833Z,1.85
2022-11-08T12:43:55.694Z,2.38
2022-11-08T12:58:58.041Z,2.08
2022-11-08T13:14:00.742Z,2.58
2022-11-08T13:29:18.145Z,1.90
2022-11-08T13:44:55.167Z,1.67
2022-11-08T13:59:57.880Z,1.67
2022-11-08T14:15:26.217Z,2.00
2022-11-08T14:30:29.187Z,1.90
2022-11-08T14:45:31.044Z,3.65
2022-11-08T15:00:33.519Z,3.85
2022-11-08T15:15:35.444Z,3.55
2022-11-08T15:30:39.904Z,3.80
2022-11-08T15:45:53.615Z,3.63
2022-11-08T16:00:56.802Z,4.00
2022-11-08T16:15:59.965Z,4.60
2022-11-08T16:31:03.377Z,5.10
2022-11-08T16:46:07.386Z,8.52
2022-11-08T17:01:16.194Z,9.00
2022-11-08T17:16:18.931Z,7.60
2022-11-08T17:31:20.812Z,8.13
2022-11-08T17:46:22.974Z,10.55
2022-11-08T18:01:25.045Z,12.25
2022-11-08T18:16:27.100Z,13.82
2022-11-08T18:31:30.119Z,14.95
2022-11-08T18:46:41.944Z,18.92
2022-11-08T19:01:45.359Z,18.33
2022-11-08T19:16:47.360Z,17.52
2022-11-08T19:31:49.211Z,18.95
2022-11-08T19:46:51.372Z,18.50
2022-11-08T20:01:53.741Z,19.48
2022-11-08T20:16:56.174Z,20.23
2022-11-08T20:32:00.413Z,19.17
2022-11-08T20:47:06.313Z,21.33
2022-11-08T21:02:11.785Z,18.08
2022-11-08T21:17:22.033Z,22.42
2022-11-08T21:32:24.436Z,19.08
2022-11-08T21:47:26.317Z,17.67
2022-11-08T22:02:28.246Z,18.48
2022-11-08T22:17:30.211Z,16.85
2022-11-08T22:32:32.133Z,17.45
2022-11-08T22:47:34.031Z,17.75
2022-11-08T23:02:36.081Z,18.38
2022-11-08T23:17:38.043Z,17.88
2022-11-08T23:32:45.054Z,19.85
2022-11-08T23:47:47.024Z,20.77
